Time;durP1;ratioP1;P1;durP2;ratioP2;P2;SDS_P1;SDS_P2;PMS_P1;PMS_P2;Temp;Humidity;BMP_temperature;BMP_pressure;BME280_temperature;BME280_humidity;BME280_pressure;Samples;Min_cycle;Max_cycle;Signal;HPM_P1;HPM_P2
2021/06/24 00:00:58;;;;;;;26.15;5.97;;;742.90;1356.80;;;;;;5113794;28;20515;-73
2021/06/24 00:03:28;;;;;;;21.65;5.97;;;742.90;1356.80;;;;;;5112821;28;20024;-70
2021/06/24 00:05:55;;;;;;;21.48;5.45;;;742.90;1356.80;;;;;;5113564;28;20019;-73
2021/06/24 00:08:22;;;;;;;26.10;6.45;;;742.70;1356.80;;;;;;5114008;28;20027;-72
2021/06/24 00:10:49;;;;;;;27.30;6.50;;;742.80;1356.80;;;;;;5113504;28;20030;-68
2021/06/24 00:13:15;;;;;;;24.38;6.38;;;742.70;1356.80;;;;;;5113700;28;20110;-71
2021/06/24 00:15:42;;;;;;;27.13;6.38;;;742.70;1356.80;;;;;;5113637;28;20352;-68
2021/06/24 00:18:08;;;;;;;26.30;6.05;;;742.70;1382.40;;;;;;5113762;28;20030;-66
2021/06/24 00:20:36;;;;;;;25.15;6.07;;;742.70;1382.40;;;;;;5113240;28;20019;-73
2021/06/24 00:23:02;;;;;;;21.27;6.10;;;742.70;1382.40;;;;;;5113363;28;20399;-66
2021/06/24 00:25:28;;;;;;;29.23;6.60;;;742.70;1382.40;;;;;;5113656;28;20023;-70
2021/06/24 00:27:54;;;;;;;24.00;5.88;;;742.70;1382.40;;;;;;5113149;28;20031;-73
2021/06/24 00:30:20;;;;;;;29.52;6.80;;;742.70;1382.40;;;;;;5113338;28;20016;-71
2021/06/24 00:32:46;;;;;;;23.00;6.10;;;742.60;1382.40;;;;;;5113104;28;20107;-65
2021/06/24 00:35:14;;;;;;;30.08;6.25;;;742.60;1382.40;;;;;;5112097;28;20119;-69
2021/06/24 00:37:40;;;;;;;25.58;5.88;;;742.60;1408.00;;;;;;5113054;28;20077;-70
2021/06/24 00:40:11;;;;;;;28.05;5.70;;;742.60;1382.40;;;;;;5095388;27;20020;-71
2021/06/24 00:42:37;;;;;;;23.05;5.85;;;742.50;1408.00;;;;;;5092170;28;20032;-72
2021/06/24 00:45:06;;;;;;;29.42;5.72;;;742.50;1408.00;;;;;;5092595;28;20024;-72
2021/06/24 00:47:32;;;;;;;26.15;6.35;;;742.40;1408.00;;;;;;5092861;28;20028;-69
2021/06/24 00:49:58;;;;;;;24.77;5.18;;;742.40;1408.00;;;;;;5109126;28;20038;-73
2021/06/24 00:52:24;;;;;;;18.10;5.57;;;742.40;1408.00;;;;;;5113182;28;20042;-74
2021/06/24 00:54:51;;;;;;;31.42;5.72;;;717.60;1382.40;;;;;;5111538;28;20024;-69
2021/06/24 00:57:17;;;;;;;31.83;6.05;;;742.40;1408.00;;;;;;5111232;28;20030;-71
2021/06/24 00:59:44;;;;;;;24.27;6.13;;;742.40;1408.00;;;;;;5112355;28;20028;-73
2021/06/24 01:02:10;;;;;;;18.73;5.70;;;742.40;1408.00;;;;;;5112843;28;20028;-72
2021/06/24 01:04:36;;;;;;;25.83;5.72;;;742.40;1408.00;;;;;;5112870;28;20023;-73
2021/06/24 01:07:04;;;;;;;34.00;6.93;;;742.40;1408.00;;;;;;5111437;28;20038;-66
2021/06/24 01:09:30;;;;;;;22.08;5.65;;;742.40;1408.00;;;;;;5112703;28;20027;-68
2021/06/24 01:11:55;;;;;;;34.55;6.05;;;717.70;1382.40;;;;;;5112395;28;20038;-73
2021/06/24 01:14:23;;;;;;;23.98;5.65;;;717.70;1356.80;;;;;;5111507;28;20032;-70
2021/06/24 01:16:53;;;;;;;28.10;5.75;;;717.60;1382.40;;;;;;5112348;28;20019;-73
2021/06/24 01:19:19;;;;;;;32.90;6.43;;;717.70;1382.40;;;;;;5112694;28;20035;-73
2021/06/24 01:21:46;;;;;;;27.75;6.65;;;717.70;1382.40;;;;;;5112245;28;20065;-72
2021/06/24 01:24:13;;;;;;;19.77;6.40;;;717.70;1382.40;;;;;;5112908;28;20509;-66
2021/06/24 01:26:41;;;;;;;31.30;7.03;;;717.60;1382.40;;;;;;5113438;28;20040;-72
2021/06/24 01:29:08;;;;;;;35.72;7.75;;;717.60;1382.40;;;;;;5113572;28;20016;-65
2021/06/24 01:31:34;;;;;;;22.63;6.55;;;717.60;1382.40;;;;;;5113356;28;20383;-71
2021/06/24 01:34:04;;;;;;;36.30;6.88;;;717.60;1356.80;;;;;;5111825;28;20418;-67
2021/06/24 01:36:30;;;;;;;21.60;6.28;;;717.60;1356.80;;;;;;5109326;28;20024;-65
2021/06/24 01:38:56;;;;;;;29.67;7.00;;;717.60;1356.80;;;;;;5113145;28;20028;-65
2021/06/24 01:41:22;;;;;;;25.02;6.15;;;717.60;1356.80;;;;;;5112447;28;20061;-65
2021/06/24 01:43:48;;;;;;;17.48;5.45;;;717.60;1356.80;;;;;;5111751;28;20071;-67
2021/06/24 01:46:15;;;;;;;27.27;6.00;;;717.60;1356.80;;;;;;5113439;28;20051;-72
2021/06/24 01:48:43;;;;;;;21.20;6.07;;;717.60;1356.80;;;;;;5112968;28;20533;-73
2021/06/24 01:51:09;;;;;;;26.33;5.95;;;717.50;1356.80;;;;;;5113359;28;20575;-66
2021/06/24 01:53:36;;;;;;;17.83;5.45;;;717.50;1356.80;;;;;;5113315;28;20042;-65
2021/06/24 01:56:03;;;;;;;16.20;5.05;;;717.50;1356.80;;;;;;5117444;27;20046;-71
2021/06/24 01:58:29;;;;;;;22.70;5.18;;;717.50;1356.80;;;;;;5117352;28;20029;-67
2021/06/24 02:00:58;;;;;;;28.10;6.63;;;717.50;1356.80;;;;;;5117692;28;20020;-65
2021/06/24 02:03:25;;;;;;;21.02;5.00;;;717.50;1356.80;;;;;;5116187;28;20031;-65
2021/06/24 02:05:54;;;;;;;25.83;5.40;;;717.50;1331.20;;;;;;5117557;27;20042;-68
2021/06/24 02:08:25;;;;;;;26.55;5.53;;;717.40;1331.20;;;;;;5116217;28;20032;-66
2021/06/24 02:10:52;;;;;;;24.25;5.57;;;717.40;1331.20;;;;;;5117580;28;20047;-65
2021/06/24 02:13:18;;;;;;;17.40;4.78;;;717.40;1331.20;;;;;;5117087;28;20027;-64
2021/06/24 02:15:44;;;;;;;19.30;5.13;;;717.40;1331.20;;;;;;5117953;28;20015;-64
2021/06/24 02:18:11;;;;;;;21.75;5.10;;;717.40;1331.20;;;;;;5117292;28;20034;-67
2021/06/24 02:20:39;;;;;;;20.77;5.38;;;717.40;1331.20;;;;;;5117269;28;20026;-64
2021/06/24 02:23:05;;;;;;;23.65;4.80;;;717.40;1331.20;;;;;;5117294;28;20036;-64
2021/06/24 02:25:32;;;;;;;20.80;5.07;;;717.40;1331.20;;;;;;5117338;28;20026;-71
2021/06/24 02:27:59;;;;;;;30.38;5.50;;;717.40;1305.60;;;;;;5117413;28;20048;-71
2021/06/24 02:30:25;;;;;;;25.02;5.25;;;717.30;1305.60;;;;;;5117119;28;20023;-64
2021/06/24 02:32:52;;;;;;;18.10;4.43;;;717.30;1305.60;;;;;;5115635;28;20537;-64
2021/06/24 02:35:19;;;;;;;25.08;5.15;;;717.30;1305.60;;;;;;5116967;28;20498;-64
2021/06/24 02:37:46;;;;;;;19.63;4.50;;;717.40;1305.60;;;;;;5117251;28;20015;-64
2021/06/24 02:40:14;;;;;;;23.83;4.68;;;717.40;1305.60;;;;;;5116912;28;20024;-64
2021/06/24 02:42:40;;;;;;;20.35;5.07;;;717.40;1305.60;;;;;;5116701;28;20430;-64
2021/06/24 02:45:09;;;;;;;25.65;4.90;;;717.40;1305.60;;;;;;5116960;28;20484;-69
2021/06/24 02:47:35;;;;;;;19.77;4.90;;;717.30;1280.00;;;;;;5116527;28;20032;-66
2021/06/24 02:50:00;;;;;;;18.58;4.78;;;717.30;1280.00;;;;;;5116670;28;20023;-65
2021/06/24 02:52:26;;;;;;;24.05;4.82;;;717.40;1280.00;;;;;;5116625;28;20422;-70
2021/06/24 02:54:53;;;;;;;26.25;5.18;;;717.30;1280.00;;;;;;5116629;28;20023;-64
2021/06/24 02:57:19;;;;;;;20.00;4.53;;;717.30;1280.00;;;;;;5116546;28;20039;-72
2021/06/24 02:59:45;;;;;;;24.95;5.50;;;717.30;1280.00;;;;;;5116585;28;20020;-65
2021/06/24 03:02:12;;;;;;;21.40;5.78;;;717.30;1280.00;;;;;;5116499;28;20026;-66
2021/06/24 03:04:38;;;;;;;14.85;4.70;;;717.30;1280.00;;;;;;5115917;28;20073;-64
2021/06/24 03:07:04;;;;;;;24.00;4.75;;;717.30;1305.60;;;;;;5116716;28;20034;-71
2021/06/24 03:09:30;;;;;;;19.00;5.20;;;717.30;1305.60;;;;;;5116609;27;20372;-72
2021/06/24 03:11:56;;;;;;;29.25;5.55;;;717.30;1305.60;;;;;;5116312;28;20019;-64
2021/06/24 03:14:23;;;;;;;21.98;5.07;;;717.30;1305.60;;;;;;5116152;28;20044;-65
2021/06/24 03:16:49;;;;;;;22.42;5.28;;;717.30;1305.60;;;;;;5116259;28;20357;-71
2021/06/24 03:19:15;;;;;;;27.63;5.68;;;717.20;1305.60;;;;;;5116697;28;20073;-67
2021/06/24 03:21:41;;;;;;;20.67;5.25;;;717.20;1305.60;;;;;;5116144;28;20065;-71
2021/06/24 03:24:08;;;;;;;34.60;5.63;;;717.20;1305.60;;;;;;5116092;28;20016;-63
2021/06/24 03:26:34;;;;;;;24.10;5.25;;;717.20;1331.20;;;;;;5116362;28;20039;-64
2021/06/24 03:29:01;;;;;;;36.40;5.22;;;717.20;1331.20;;;;;;5115966;28;20507;-64
2021/06/24 03:31:27;;;;;;;23.60;5.03;;;717.00;1331.20;;;;;;5116483;28;20031;-71
2021/06/24 03:33:53;;;;;;;20.65;5.25;;;717.00;1331.20;;;;;;5114493;28;20038;-66
2021/06/24 03:36:20;;;;;;;20.85;5.97;;;717.00;1331.20;;;;;;5115886;28;20019;-65
2021/06/24 03:38:48;;;;;;;27.00;5.57;;;717.00;1331.20;;;;;;5116047;28;20110;-64
2021/06/24 03:41:15;;;;;;;27.13;5.57;;;717.00;1331.20;;;;;;5115738;28;20011;-64
2021/06/24 03:43:42;;;;;;;28.52;5.28;;;717.00;1331.20;;;;;;5115928;27;20048;-65
2021/06/24 03:46:09;;;;;;;23.98;5.05;;;717.00;1331.20;;;;;;5115649;28;20077;-64
2021/06/24 03:48:35;;;;;;;20.88;4.82;;;716.90;1331.20;;;;;;5115616;28;20019;-65
2021/06/24 03:51:01;;;;;;;28.23;5.82;;;716.90;1356.80;;;;;;5115532;28;20022;-64
2021/06/24 03:53:27;;;;;;;26.00;5.68;;;717.00;1356.80;;;;;;5115442;28;20032;-64
2021/06/24 03:55:53;;;;;;;32.92;5.28;;;716.90;1356.80;;;;;;5115456;27;20020;-65
2021/06/24 03:58:19;;;;;;;25.65;5.75;;;716.90;1356.80;;;;;;5115374;28;20057;-67
2021/06/24 04:00:48;;;;;;;22.40;5.28;;;716.90;1356.80;;;;;;5115350;28;20099;-64
2021/06/24 04:03:15;;;;;;;36.35;5.47;;;716.90;1356.80;;;;;;5115242;28;20024;-68
2021/06/24 04:05:41;;;;;;;28.20;5.53;;;716.90;1356.80;;;;;;5115171;28;20414;-64
2021/06/24 04:08:07;;;;;;;23.48;5.80;;;717.00;1356.80;;;;;;5115431;28;20049;-71
2021/06/24 04:10:35;;;;;;;25.63;5.00;;;717.00;1382.40;;;;;;5115143;28;20024;-64
2021/06/24 04:13:01;;;;;;;27.05;5.15;;;717.00;1382.40;;;;;;5115015;28;20108;-64
2021/06/24 04:15:28;;;;;;;22.30;5.05;;;717.00;1382.40;;;;;;5115001;28;20057;-70
2021/06/24 04:17:55;;;;;;;25.00;4.85;;;717.00;1382.40;;;;;;5114181;28;20065;-65
2021/06/24 04:20:21;;;;;;;28.70;5.82;;;717.00;1382.40;;;;;;5114984;28;20031;-64
2021/06/24 04:22:48;;;;;;;21.45;5.45;;;717.00;1382.40;;;;;;5114877;28;20495;-64
2021/06/24 04:25:17;;;;;;;19.33;5.32;;;717.00;1382.40;;;;;;5115080;28;20055;-64
2021/06/24 04:27:44;;;;;;;22.75;5.57;;;717.20;1382.40;;;;;;5114804;28;20321;-65
2021/06/24 04:30:11;;;;;;;16.95;5.25;;;717.20;1382.40;;;;;;5115027;28;20517;-72
2021/06/24 04:32:38;;;;;;;21.92;5.07;;;717.20;1382.40;;;;;;5114646;28;20023;-71
2021/06/24 04:35:05;;;;;;;32.83;5.68;;;717.20;1408.00;;;;;;5114665;28;20478;-65
2021/06/24 04:37:31;;;;;;;39.55;6.47;;;717.20;1382.40;;;;;;5114584;28;20377;-72
2021/06/24 04:39:57;;;;;;;27.75;5.22;;;717.20;1382.40;;;;;;5114502;28;20031;-64
2021/06/24 04:42:24;;;;;;;22.33;4.68;;;717.30;1382.40;;;;;;5113242;28;20042;-66
2021/06/24 04:44:50;;;;;;;20.33;4.68;;;717.30;1382.40;;;;;;5114618;28;20035;-64
2021/06/24 04:47:16;;;;;;;34.67;6.18;;;717.50;1382.40;;;;;;5114344;28;20023;-71
2021/06/24 04:49:43;;;;;;;26.83;5.50;;;717.30;1382.40;;;;;;5114705;28;20027;-71
2021/06/24 04:52:09;;;;;;;22.33;5.60;;;717.30;1408.00;;;;;;5114443;28;20027;-73
2021/06/24 04:54:35;;;;;;;35.67;5.40;;;717.40;1408.00;;;;;;5113017;28;20032;-71
2021/06/24 04:57:01;;;;;;;26.50;5.03;;;717.40;1408.00;;;;;;5114318;28;20032;-71
2021/06/24 04:59:27;;;;;;;26.30;5.18;;;717.50;1382.40;;;;;;5114216;28;20028;-71
2021/06/24 05:01:53;;;;;;;31.35;5.68;;;717.50;1382.40;;;;;;5114246;28;20058;-64
2021/06/24 05:04:19;;;;;;;29.85;5.00;;;717.50;1382.40;;;;;;5114192;28;20070;-71
2021/06/24 05:06:49;;;;;;;23.30;4.80;;;717.60;1382.40;;;;;;5114205;28;20499;-64
2021/06/24 05:09:16;;;;;;;23.83;4.97;;;717.60;1382.40;;;;;;5114019;28;20487;-70
2021/06/24 05:11:42;;;;;;;29.33;5.85;;;717.70;1382.40;;;;;;5114339;28;20525;-67
2021/06/24 05:14:08;;;;;;;22.42;5.00;;;742.40;1408.00;;;;;;5113995;28;20035;-71
2021/06/24 05:16:35;;;;;;;23.58;5.35;;;742.40;1382.40;;;;;;5114022;28;20062;-64
2021/06/24 05:19:02;;;;;;;30.08;4.70;;;742.40;1382.40;;;;;;5114042;28;20023;-64
2021/06/24 05:21:28;;;;;;;35.28;5.68;;;742.50;1382.40;;;;;;5113966;28;20022;-70
2021/06/24 05:23:54;;;;;;;22.80;4.45;;;742.50;1408.00;;;;;;5114000;28;20046;-64
2021/06/24 05:26:20;;;;;;;24.77;5.10;;;742.50;1382.40;;;;;;5114196;28;20478;-64
2021/06/24 05:28:46;;;;;;;22.67;5.05;;;742.60;1382.40;;;;;;5113746;28;20102;-64
2021/06/24 05:31:12;;;;;;;29.27;4.95;;;742.60;1382.40;;;;;;5114075;28;20048;-66
2021/06/24 05:33:38;;;;;;;29.42;4.68;;;742.60;1382.40;;;;;;5112399;28;20043;-69
2021/06/24 05:36:04;;;;;;;20.10;4.95;;;742.70;1382.40;;;;;;5113799;28;20028;-65
2021/06/24 05:38:30;;;;;;;12.43;3.80;;;742.80;1356.80;;;;;;5113773;28;20015;-65
2021/06/24 05:40:57;;;;;;;22.40;4.45;;;742.90;1356.80;;;;;;5114002;28;20050;-65
2021/06/24 05:43:23;;;;;;;23.25;4.78;;;742.90;1356.80;;;;;;5113640;28;20389;-67
2021/06/24 05:45:49;;;;;;;23.35;4.35;;;743.00;1356.80;;;;;;5113689;28;20050;-65
2021/06/24 05:48:15;;;;;;;20.88;5.78;;;743.00;1356.80;;;;;;5113977;28;20464;-71
2021/06/24 05:50:41;;;;;;;26.10;4.80;;;743.10;1356.80;;;;;;5112468;28;20023;-73
2021/06/24 05:53:08;;;;;;;29.40;4.90;;;743.10;1356.80;;;;;;5113765;28;20041;-65
2021/06/24 05:55:50;;;;;;;25.10;5.22;;;743.10;1356.80;;;;;;5113598;28;20034;-71
2021/06/24 05:58:21;;;;;;;30.25;4.70;;;743.20;1331.20;;;;;;5113862;28;20026;-64
2021/06/24 06:00:49;;;;;;;24.73;5.10;;;743.30;1356.80;;;;;;5113868;28;20065;-72
2021/06/24 06:03:16;;;;;;;23.02;5.22;;;768.00;1356.80;;;;;;5113563;28;20020;-66
2021/06/24 06:05:42;;;;;;;18.90;4.85;;;768.00;1356.80;;;;;;5113799;28;20028;-72
2021/06/24 06:08:08;;;;;;;15.30;4.82;;;768.10;1331.20;;;;;;5113530;28;20085;-72
2021/06/24 06:10:36;;;;;;;20.92;4.95;;;768.20;1331.20;;;;;;5113425;28;20499;-72
2021/06/24 06:13:05;;;;;;;26.73;5.18;;;768.20;1356.80;;;;;;5113376;28;20502;-65
2021/06/24 06:15:31;;;;;;;20.60;4.53;;;768.20;1356.80;;;;;;5113501;28;20047;-65
2021/06/24 06:17:57;;;;;;;12.18;4.13;;;768.20;1331.20;;;;;;5113355;28;20047;-67
2021/06/24 06:20:23;;;;;;;19.90;4.57;;;768.30;1331.20;;;;;;5113392;28;20108;-66
2021/06/24 06:22:49;;;;;;;29.50;5.25;;;768.30;1382.40;;;;;;5113332;28;20024;-65
2021/06/24 06:25:15;;;;;;;24.73;5.55;;;768.40;1356.80;;;;;;5113359;28;20015;-65
2021/06/24 06:27:41;;;;;;;21.13;5.13;;;768.50;1356.80;;;;;;5113255;28;20028;-65
2021/06/24 06:30:09;;;;;;;26.40;5.10;;;768.50;1356.80;;;;;;5113272;28;20547;-67
2021/06/24 06:32:35;;;;;;;23.50;5.32;;;768.60;1356.80;;;;;;5111819;28;20035;-65
2021/06/24 06:35:01;;;;;;;19.70;4.65;;;768.60;1356.80;;;;;;5113252;28;20059;-72
2021/06/24 06:37:27;;;;;;;27.23;5.07;;;768.70;1331.20;;;;;;5113156;28;20435;-72
2021/06/24 06:39:52;;;;;;;23.25;5.28;;;768.80;1331.20;;;;;;5113719;28;20023;-69
2021/06/24 06:42:18;;;;;;;22.88;5.38;;;793.60;1356.80;;;;;;5116837;27;20409;-74
2021/06/24 06:44:44;;;;;;;16.90;4.75;;;793.70;1356.80;;;;;;5116890;28;20134;-65
2021/06/24 06:47:10;;;;;;;24.33;5.28;;;793.80;1356.80;;;;;;5117029;28;20030;-72
2021/06/24 06:49:36;;;;;;;19.50;4.60;;;793.90;1356.80;;;;;;5117008;28;20395;-65
2021/06/24 06:52:02;;;;;;;22.92;5.18;;;794.10;1356.80;;;;;;5116732;28;20019;-72
2021/06/24 06:54:28;;;;;;;18.67;4.97;;;794.10;1356.80;;;;;;5116606;28;20094;-72
2021/06/24 06:56:54;;;;;;;18.02;4.32;;;794.20;1331.20;;;;;;5116648;28;20068;-66
2021/06/24 06:59:20;;;;;;;24.38;4.97;;;794.30;1331.20;;;;;;5116568;28;20055;-73
2021/06/24 07:01:46;;;;;;;18.20;5.10;;;794.40;1331.20;;;;;;5116491;28;20027;-65
2021/06/24 07:04:12;;;;;;;21.77;5.20;;;819.20;1331.20;;;;;;5116376;28;20023;-73
2021/06/24 07:06:38;;;;;;;24.23;5.97;;;819.20;1331.20;;;;;;5115771;28;20019;-67
2021/06/24 07:09:04;;;;;;;29.67;5.55;;;819.20;1331.20;;;;;;5115914;28;20031;-67
2021/06/24 07:11:30;;;;;;;29.63;5.75;;;819.20;1331.20;;;;;;5115891;28;20024;-66
2021/06/24 07:13:56;;;;;;;23.42;6.25;;;794.40;1331.20;;;;;;5113410;28;20051;-68
2021/06/24 07:16:22;;;;;;;23.05;5.55;;;794.40;1331.20;;;;;;5115120;28;20030;-67
2021/06/24 07:18:48;;;;;;;14.32;4.32;;;819.20;1331.20;;;;;;5113469;28;20027;-67
2021/06/24 07:21:14;;;;;;;21.95;5.43;;;819.20;1331.20;;;;;;5116031;28;20490;-66
2021/06/24 07:23:40;;;;;;;27.52;6.65;;;819.40;1331.20;;;;;;5115902;28;20031;-66
2021/06/24 07:26:06;;;;;;;35.60;6.45;;;819.50;1305.60;;;;;;5114115;28;20027;-65
2021/06/24 07:28:31;;;;;;;17.90;4.80;;;819.60;1305.60;;;;;;5114410;28;20041;-67
2021/06/24 07:30:57;;;;;;;24.13;5.47;;;819.60;1280.00;;;;;;5115616;28;20460;-67
2021/06/24 07:33:24;;;;;;;22.33;5.00;;;819.60;1305.60;;;;;;5115429;28;20039;-70
2021/06/24 07:35:50;;;;;;;21.15;5.22;;;819.50;1305.60;;;;;;5115461;28;20024;-67
2021/06/24 07:38:16;;;;;;;20.80;5.80;;;819.40;1331.20;;;;;;5115649;28;20376;-65
2021/06/24 07:40:42;;;;;;;27.88;6.38;;;819.40;1356.80;;;;;;5114156;28;20023;-73
2021/06/24 07:43:08;;;;;;;34.42;6.22;;;819.40;1331.20;;;;;;5115379;28;20047;-73
2021/06/24 07:45:36;;;;;;;25.25;5.78;;;819.30;1331.20;;;;;;5115613;28;20019;-68
2021/06/24 07:48:03;;;;;;;19.58;5.05;;;819.30;1356.80;;;;;;5112324;28;20498;-69
2021/06/24 07:50:30;;;;;;;35.53;6.78;;;819.40;1331.20;;;;;;5110139;28;20411;-68
2021/06/24 07:52:56;;;;;;;23.15;6.03;;;819.40;1356.80;;;;;;5112124;28;20030;-74
2021/06/24 07:55:22;;;;;;;33.30;6.47;;;819.50;1331.20;;;;;;5111595;28;20031;-68
2021/06/24 07:57:48;;;;;;;33.88;7.07;;;819.60;1331.20;;;;;;5111821;28;20102;-69
2021/06/24 08:00:14;;;;;;;30.40;6.72;;;819.60;1331.20;;;;;;5114117;28;20055;-71
2021/06/24 08:02:40;;;;;;;29.25;6.18;;;819.60;1356.80;;;;;;5112116;28;20547;-73
2021/06/24 08:05:07;;;;;;;24.13;5.95;;;819.50;1331.20;;;;;;5113441;28;20030;-73
2021/06/24 08:07:35;;;;;;;24.40;6.65;;;819.60;1331.20;;;;;;5113887;28;20107;-70
2021/06/24 08:10:03;;;;;;;24.77;5.95;;;819.70;1331.20;;;;;;5113332;28;20011;-70
2021/06/24 08:12:30;;;;;;;25.85;6.18;;;819.80;1331.20;;;;;;5113495;28;20022;-69
2021/06/24 08:14:56;;;;;;;22.33;6.15;;;819.90;1331.20;;;;;;5113442;28;20020;-68
2021/06/24 08:17:22;;;;;;;27.52;6.65;;;819.90;1305.60;;;;;;5112990;28;20194;-66
2021/06/24 08:19:48;;;;;;;30.85;7.47;;;819.90;1305.60;;;;;;5113344;28;20103;-74
2021/06/24 08:22:15;;;;;;;27.85;6.25;;;820.00;1305.60;;;;;;5113390;28;20095;-69
2021/06/24 08:24:40;;;;;;;31.35;6.30;;;820.00;1305.60;;;;;;5113287;27;20027;-70
2021/06/24 08:27:06;;;;;;;26.27;7.03;;;820.00;1280.00;;;;;;5113001;27;20069;-65
2021/06/24 08:29:32;;;;;;;31.50;7.40;;;820.10;1305.60;;;;;;5113239;28;20032;-69
2021/06/24 08:32:00;;;;;;;35.40;6.82;;;844.80;1305.60;;;;;;5113121;27;20042;-71
2021/06/24 08:34:27;;;;;;;28.48;6.47;;;844.80;1305.60;;;;;;5112986;28;20035;-71
2021/06/24 08:36:53;;;;;;;27.27;7.30;;;844.80;1305.60;;;;;;5112694;28;20024;-70
2021/06/24 08:39:19;;;;;;;31.02;7.38;;;844.90;1280.00;;;;;;5112298;28;20035;-72
2021/06/24 08:41:48;;;;;;;24.48;7.07;;;844.90;1305.60;;;;;;5112032;28;20411;-72
2021/06/24 08:44:14;;;;;;;25.40;7.38;;;845.00;1305.60;;;;;;5112690;28;20043;-71
2021/06/24 08:46:42;;;;;;;25.30;6.65;;;845.10;1305.60;;;;;;5112533;28;20024;-69
2021/06/24 08:49:09;;;;;;;25.17;7.43;;;845.10;1331.20;;;;;;5112447;28;20107;-70
2021/06/24 08:51:34;;;;;;;20.33;6.70;;;845.10;1254.40;;;;;;5112441;28;20060;-69
2021/06/24 08:54:00;;;;;;;26.77;7.13;;;845.20;1254.40;;;;;;5112033;28;20104;-73
2021/06/24 08:56:27;;;;;;;36.75;7.10;;;845.20;1228.80;;;;;;5110699;28;20026;-70
2021/06/24 08:58:53;;;;;;;25.38;6.40;;;845.20;1228.80;;;;;;5110331;28;20019;-70
2021/06/24 09:01:20;;;;;;;21.90;7.03;;;845.20;1228.80;;;;;;5112146;28;20034;-70
2021/06/24 09:03:47;;;;;;;24.48;7.07;;;845.20;1254.40;;;;;;5111301;28;20536;-69
2021/06/24 09:06:15;;;;;;;20.08;7.00;;;845.20;1280.00;;;;;;5111876;28;20102;-68
2021/06/24 09:08:43;;;;;;;22.90;6.57;;;845.30;1280.00;;;;;;5110911;28;20023;-71
2021/06/24 09:11:24;;;;;;;26.02;7.90;;;845.30;1280.00;;;;;;5110699;28;20012;-68
2021/06/24 09:14:06;;;;;;;31.35;7.40;;;845.30;1254.40;;;;;;5109002;28;20418;-70
2021/06/24 09:16:37;;;;;;;30.05;6.90;;;845.30;1254.40;;;;;;5108274;28;20023;-70
2021/06/24 09:19:24;;;;;;;26.67;7.55;;;845.30;1254.40;;;;;;5109809;28;20031;-69
2021/06/24 09:22:02;;;;;;;31.85;8.68;;;845.30;1280.00;;;;;;5108877;28;20019;-68
2021/06/24 09:24:37;;;;;;;33.75;8.43;;;845.40;1280.00;;;;;;5108781;28;20023;-70
2021/06/24 09:27:22;;;;;;;27.95;8.68;;;845.40;1280.00;;;;;;5110399;28;20023;-68
2021/06/24 09:30:07;;;;;;;20.30;6.70;;;845.40;1331.20;;;;;;5108959;28;20026;-70
2021/06/24 09:32:37;;;;;;;29.17;8.82;;;845.40;1280.00;;;;;;5108700;28;20019;-70
2021/06/24 09:35:09;;;;;;;30.00;8.23;;;845.50;1280.00;;;;;;5110254;28;20070;-67
2021/06/24 09:38:02;;;;;;;30.30;8.15;;;845.50;1254.40;;;;;;5110091;28;20039;-67
2021/06/24 09:40:48;;;;;;;28.65;8.93;;;845.50;1254.40;;;;;;5108320;28;20023;-68
2021/06/24 09:43:15;;;;;;;31.75;9.65;;;845.50;1254.40;;;;;;5108918;28;20064;-67
2021/06/24 09:46:00;;;;;;;37.90;8.50;;;845.50;1228.80;;;;;;5111933;28;20376;-67
2021/06/24 09:48:36;;;;;;;23.42;8.27;;;845.50;1254.40;;;;;;5109069;28;20487;-68
2021/06/24 09:51:19;;;;;;;32.70;7.97;;;845.60;1280.00;;;;;;5112039;28;20107;-69
2021/06/24 09:54:00;;;;;;;42.58;10.30;;;845.70;1280.00;;;;;;5111706;28;20080;-71
2021/06/24 09:56:30;;;;;;;80.57;30.70;;;845.70;1254.40;;;;;;5112251;28;20020;-68
2021/06/24 09:58:57;;;;;;;76.15;32.08;;;870.40;1280.00;;;;;;5112812;28;20028;-67
2021/06/24 10:01:37;;;;;;;64.80;23.05;;;870.40;1228.80;;;;;;5113243;28;20026;-68
2021/06/24 10:04:19;;;;;;;75.25;33.78;;;870.40;1254.40;;;;;;5113091;28;20076;-66
2021/06/24 10:06:46;;;;;;;69.83;24.97;;;870.40;1254.40;;;;;;5112888;28;20020;-67
2021/06/24 10:09:13;;;;;;;51.83;21.05;;;870.50;1254.40;;;;;;5113370;28;20252;-66
2021/06/24 10:11:39;;;;;;;49.70;16.65;;;870.50;1254.40;;;;;;5113607;28;20446;-66
2021/06/24 10:14:07;;;;;;;54.15;16.73;;;870.50;1228.80;;;;;;5113498;28;20470;-66
2021/06/24 10:16:33;;;;;;;54.35;22.65;;;870.50;1228.80;;;;;;5116795;28;20027;-66
2021/06/24 10:19:01;;;;;;;39.40;12.52;;;870.50;1228.80;;;;;;5117557;28;20114;-66
2021/06/24 10:21:30;;;;;;;51.35;11.52;;;870.60;1254.40;;;;;;5117498;28;20027;-66
2021/06/24 10:24:17;;;;;;;36.53;9.93;;;870.60;1254.40;;;;;;5117483;28;20015;-66
2021/06/24 10:26:47;;;;;;;42.92;12.90;;;870.60;1254.40;;;;;;5117481;28;20042;-66
2021/06/24 10:29:17;;;;;;;40.33;13.85;;;870.60;1228.80;;;;;;5117925;28;20024;-66
2021/06/24 10:31:50;;;;;;;32.50;9.88;;;870.70;1280.00;;;;;;5117282;28;20381;-66
2021/06/24 10:34:18;;;;;;;37.97;10.55;;;870.70;1228.80;;;;;;5117791;28;20034;-66
2021/06/24 10:37:14;;;;;;;34.28;10.15;;;870.70;1203.20;;;;;;5117315;28;20102;-66
2021/06/24 10:39:41;;;;;;;34.17;9.75;;;870.80;1254.40;;;;;;5054554;28;20132;-66
2021/06/24 10:42:09;;;;;;;37.03;9.90;;;870.80;1203.20;;;;;;5054942;28;20032;-66
2021/06/24 10:45:03;;;;;;;33.28;9.90;;;870.80;1203.20;;;;;;5054546;28;20440;-66
2021/06/24 10:47:30;;;;;;;32.05;9.25;;;870.80;1203.20;;;;;;5054308;28;20024;-66
2021/06/24 10:50:33;;;;;;;31.13;8.77;;;870.80;1203.20;;;;;;5054384;28;20072;-66
2021/06/24 10:52:59;;;;;;;48.80;10.20;;;870.80;1177.60;;;;;;5054404;28;20208;-66
2021/06/24 10:55:39;;;;;;;38.70;9.32;;;870.90;1203.20;;;;;;5054450;28;20552;-66
2021/06/24 10:58:11;;;;;;;27.92;9.07;;;870.90;1203.20;;;;;;5054043;28;20029;-67
2021/06/24 11:00:46;;;;;;;39.77;9.20;;;870.90;1203.20;;;;;;5054087;28;20033;-67
2021/06/24 11:03:32;;;;;;;39.45;9.88;;;870.90;1203.20;;;;;;5054082;28;20087;-66
2021/06/24 11:06:20;;;;;;;28.65;8.90;;;871.00;1177.60;;;;;;5043499;28;20473;-66
2021/06/24 11:08:47;;;;;;;42.83;9.13;;;870.90;1177.60;;;;;;5054224;28;20171;-66
2021/06/24 11:11:17;;;;;;;36.40;9.27;;;871.00;1177.60;;;;;;5054566;28;20094;-66
2021/06/24 11:13:43;;;;;;;43.78;9.77;;;871.00;1126.40;;;;;;5054267;28;20397;-66
2021/06/24 11:16:21;;;;;;;34.38;8.80;;;871.00;1126.40;;;;;;5088197;28;20383;-66
2021/06/24 11:19:08;;;;;;;38.03;9.32;;;871.00;1126.40;;;;;;5116685;28;20380;-66
2021/06/24 11:21:33;;;;;;;35.40;8.43;;;871.00;1126.40;;;;;;5116618;28;20019;-66
2021/06/24 11:24:05;;;;;;;41.88;8.52;;;871.10;1152.00;;;;;;5116284;28;20027;-66
2021/06/24 11:26:39;;;;;;;46.87;9.73;;;871.10;1100.80;;;;;;5116172;28;20023;-66
2021/06/24 11:29:09;;;;;;;43.17;8.40;;;871.10;1126.40;;;;;;5116476;28;20371;-66
2021/06/24 11:35:02;;;;;;;44.03;9.65;;;871.20;1100.80;;;;;;5102671;28;20130;-66
2021/06/24 11:37:30;;;;;;;39.58;8.45;;;871.30;1075.20;;;;;;5116352;28;20103;-66
2021/06/24 11:40:14;;;;;;;40.63;8.93;;;871.30;1075.20;;;;;;5115977;28;20020;-66
2021/06/24 11:42:42;;;;;;;33.30;8.18;;;871.30;1100.80;;;;;;5115754;28;20040;-67
2021/06/24 11:45:11;;;;;;;41.00;8.77;;;896.00;1100.80;;;;;;5115963;28;20039;-66
2021/06/24 11:47:38;;;;;;;39.33;8.75;;;896.00;1100.80;;;;;;5116107;28;20058;-66
2021/06/24 12:04:15;;;;;;;37.88;8.88;;;896.20;1075.20;;;;;;5115533;28;20357;-66
2021/06/24 12:07:18;;;;;;;30.05;7.68;;;896.20;1075.20;;;;;;5114198;28;20024;-66
2021/06/24 12:09:49;;;;;;;38.58;7.88;;;896.30;1075.20;;;;;;5114882;28;20044;-66
2021/06/24 12:12:24;;;;;;;35.30;8.65;;;896.30;1049.60;;;;;;5115955;28;20072;-67
2021/06/24 12:14:55;;;;;;;37.97;8.38;;;896.40;1049.60;;;;;;5115308;28;20037;-66
2021/06/24 12:17:26;;;;;;;32.55;8.32;;;896.40;1049.60;;;;;;5115892;28;20047;-66
2021/06/24 12:20:20;;;;;;;33.53;8.65;;;896.40;1075.20;;;;;;5115447;28;20068;-66
2021/06/24 12:22:53;;;;;;;31.38;8.80;;;896.50;1075.20;;;;;;5115494;28;20046;-66
2021/06/24 12:25:23;;;;;;;35.72;8.50;;;896.50;1075.20;;;;;;5115694;28;20456;-66
2021/06/24 12:28:02;;;;;;;36.03;7.45;;;896.50;1049.60;;;;;;5115024;28;20019;-66
2021/06/24 12:30:41;;;;;;;36.88;8.10;;;896.60;1049.60;;;;;;5115108;28;20499;-66
2021/06/24 12:33:11;;;;;;;35.85;8.48;;;896.60;1075.20;;;;;;5115148;28;20046;-67